sensor_id;sensor_type;location;lat;lon;timestamp;pressure;altitude;pressure_sealevel;temperature;humidity
46614;BME280;32338;50.430;6.806;2022-07-23T00:01:01;96924.25;;;16.64;100.00
46614;BME280;32338;50.430;6.806;2022-07-23T00:03:28;96909.31;;;16.56;100.00
46614;BME280;32338;50.430;6.806;2022-07-23T00:05:54;96899.50;;;16.57;100.00
46614;BME280;32338;50.430;6.806;2022-07-23T00:08:21;96899.13;;;16.53;100.00
46614;BME280;32338;50.430;6.806;2022-07-23T00:10:48;96898.66;;;16.56;100.00
46614;BME280;32338;50.430;6.806;2022-07-23T00:13:16;96897.47;;;16.70;100.00
46614;BME280;32338;50.430;6.806;2022-07-23T00:15:42;96898.75;;;16.68;100.00
46614;BME280;32338;50.430;6.806;2022-07-23T00:18:09;96897.72;;;16.69;100.00
46614;BME280;32338;50.430;6.806;2022-07-23T00:20:35;96899.13;;;16.72;100.00
46614;BME280;32338;50.430;6.806;2022-07-23T00:23:02;96893.91;;;16.77;100.00
46614;BME280;32338;50.430;6.806;2022-07-23T00:25:29;96901.91;;;16.77;100.00
46614;BME280;32338;50.430;6.806;2022-07-23T00:27:55;96904.72;;;16.82;100.00
46614;BME280;32338;50.430;6.806;2022-07-23T00:30:24;96917.03;;;16.83;100.00
46614;BME280;32338;50.430;6.806;2022-07-23T00:32:52;96915.09;;;16.90;100.00
46614;BME280;32338;50.430;6.806;2022-07-23T00:35:20;96917.03;;;16.83;100.00
46614;BME280;32338;50.430;6.806;2022-07-23T00:37:47;96909.63;;;16.66;100.00
46614;BME280;32338;50.430;6.806;2022-07-23T00:40:14;96910.72;;;16.59;100.00
46614;BME280;32338;50.430;6.806;2022-07-23T00:42:41;96900.16;;;16.52;100.00
46614;BME280;32338;50.430;6.806;2022-07-23T00:45:09;96895.41;;;16.54;100.00
46614;BME280;32338;50.430;6.806;2022-07-23T00:47:37;96888.38;;;16.41;100.00
46614;BME280;32338;50.430;6.806;2022-07-23T00:50:06;96895.50;;;16.29;100.00
46614;BME280;32338;50.430;6.806;2022-07-23T00:52:34;96886.38;;;16.36;100.00
46614;BME280;32338;50.430;6.806;2022-07-23T00:55:01;96888.53;;;16.46;100.00
46614;BME280;32338;50.430;6.806;2022-07-23T00:57:29;96889.75;;;16.62;100.00
46614;BME280;32338;50.430;6.806;2022-07-23T00:59:56;96894.44;;;16.67;100.00
46614;BME280;32338;50.430;6.806;2022-07-23T01:02:23;96893.97;;;16.70;100.00
46614;BME280;32338;50.430;6.806;2022-07-23T01:04:51;96890.50;;;16.69;100.00
46614;BME280;32338;50.430;6.806;2022-07-23T01:07:18;96884.81;;;16.47;100.00
46614;BME280;32338;50.430;6.806;2022-07-23T01:09:46;96886.16;;;16.38;100.00
46614;BME280;32338;50.430;6.806;2022-07-23T01:12:12;96871.09;;;16.44;100.00
46614;BME280;32338;50.430;6.806;2022-07-23T01:14:39;96885.41;;;16.49;100.00
46614;BME280;32338;50.430;6.806;2022-07-23T01:17:06;96893.03;;;16.46;100.00
46614;BME280;32338;50.430;6.806;2022-07-23T01:19:33;96888.97;;;16.43;100.00
46614;BME280;32338;50.430;6.806;2022-07-23T01:22:02;96884.09;;;16.40;100.00
46614;BME280;32338;50.430;6.806;2022-07-23T01:24:30;96882.69;;;16.37;100.00
46614;BME280;32338;50.430;6.806;2022-07-23T01:26:57;96883.06;;;16.23;100.00
46614;BME280;32338;50.430;6.806;2022-07-23T01:29:24;96870.38;;;15.99;100.00
46614;BME280;32338;50.430;6.806;2022-07-23T01:31:50;96879.38;;;15.98;100.00
46614;BME280;32338;50.430;6.806;2022-07-23T01:34:17;96879.34;;;16.05;100.00
46614;BME280;32338;50.430;6.806;2022-07-23T01:36:43;96876.81;;;16.10;100.00
46614;BME280;32338;50.430;6.806;2022-07-23T01:39:11;96877.13;;;16.20;100.00
46614;BME280;32338;50.430;6.806;2022-07-23T01:41:39;96868.47;;;16.25;100.00
46614;BME280;32338;50.430;6.806;2022-07-23T01:44:06;96857.84;;;16.18;100.00
46614;BME280;32338;50.430;6.806;2022-07-23T01:46:41;96860.97;;;15.97;100.00
46614;BME280;32338;50.430;6.806;2022-07-23T01:49:08;96858.00;;;15.86;100.00
46614;BME280;32338;50.430;6.806;2022-07-23T01:51:35;96857.81;;;15.81;100.00
46614;BME280;32338;50.430;6.806;2022-07-23T01:54:02;96872.13;;;15.62;100.00
46614;BME280;32338;50.430;6.806;2022-07-23T01:56:29;96865.22;;;15.54;100.00
46614;BME280;32338;50.430;6.806;2022-07-23T01:58:57;96858.75;;;15.43;100.00
46614;BME280;32338;50.430;6.806;2022-07-23T02:01:23;96860.00;;;15.40;100.00
46614;BME280;32338;50.430;6.806;2022-07-23T02:03:50;96856.56;;;15.33;100.00
46614;BME280;32338;50.430;6.806;2022-07-23T02:06:17;96864.59;;;15.27;100.00
46614;BME280;32338;50.430;6.806;2022-07-23T02:08:43;96857.09;;;15.17;100.00
46614;BME280;32338;50.430;6.806;2022-07-23T02:11:10;96856.13;;;15.11;100.00
46614;BME280;32338;50.430;6.806;2022-07-23T02:13:36;96858.47;;;15.26;100.00
46614;BME280;32338;50.430;6.806;2022-07-23T02:16:05;96854.81;;;15.46;100.00
46614;BME280;32338;50.430;6.806;2022-07-23T02:18:32;96851.53;;;15.50;100.00
46614;BME280;32338;50.430;6.806;2022-07-23T02:20:58;96857.00;;;15.55;100.00
46614;BME280;32338;50.430;6.806;2022-07-23T02:23:25;96854.44;;;15.67;100.00
46614;BME280;32338;50.430;6.806;2022-07-23T02:25:51;96847.69;;;15.65;100.00
46614;BME280;32338;50.430;6.806;2022-07-23T02:28:18;96853.09;;;15.58;100.00
46614;BME280;32338;50.430;6.806;2022-07-23T02:30:45;96846.34;;;15.55;100.00
46614;BME280;32338;50.430;6.806;2022-07-23T02:33:13;96848.22;;;15.55;100.00
46614;BME280;32338;50.430;6.806;2022-07-23T02:35:39;96846.97;;;15.57;100.00
46614;BME280;32338;50.430;6.806;2022-07-23T02:38:06;96849.41;;;15.34;100.00
46614;BME280;32338;50.430;6.806;2022-07-23T02:40:33;96848.94;;;15.12;100.00
46614;BME280;32338;50.430;6.806;2022-07-23T02:42:59;96845.16;;;14.94;100.00
46614;BME280;32338;50.430;6.806;2022-07-23T02:45:26;96849.28;;;14.90;100.00
46614;BME280;32338;50.430;6.806;2022-07-23T02:47:53;96854.31;;;15.05;100.00
46614;BME280;32338;50.430;6.806;2022-07-23T02:50:21;96852.75;;;15.22;100.00
46614;BME280;32338;50.430;6.806;2022-07-23T02:52:47;96843.94;;;15.22;100.00
46614;BME280;32338;50.430;6.806;2022-07-23T02:55:14;96853.88;;;15.08;100.00
46614;BME280;32338;50.430;6.806;2022-07-23T02:57:41;96847.34;;;15.04;100.00
46614;BME280;32338;50.430;6.806;2022-07-23T03:00:09;96850.97;;;15.16;100.00
46614;BME280;32338;50.430;6.806;2022-07-23T03:02:35;96864.28;;;15.10;100.00
46614;BME280;32338;50.430;6.806;2022-07-23T03:05:03;96862.41;;;15.17;100.00
46614;BME280;32338;50.430;6.806;2022-07-23T03:07:31;96867.34;;;15.13;100.00
46614;BME280;32338;50.430;6.806;2022-07-23T03:09:58;96859.47;;;15.00;100.00
46614;BME280;32338;50.430;6.806;2022-07-23T03:12:24;96855.75;;;15.01;100.00
46614;BME280;32338;50.430;6.806;2022-07-23T03:14:51;96865.97;;;15.04;100.00
46614;BME280;32338;50.430;6.806;2022-07-23T03:17:18;96859.06;;;14.96;100.00
46614;BME280;32338;50.430;6.806;2022-07-23T03:19:44;96862.03;;;14.74;100.00
46614;BME280;32338;50.430;6.806;2022-07-23T03:22:11;96865.19;;;14.51;100.00
46614;BME280;32338;50.430;6.806;2022-07-23T03:24:39;96865.16;;;14.58;100.00
46614;BME280;32338;50.430;6.806;2022-07-23T03:27:21;96858.84;;;14.52;100.00
46614;BME280;32338;50.430;6.806;2022-07-23T03:29:49;96864.84;;;14.41;100.00
46614;BME280;32338;50.430;6.806;2022-07-23T03:32:16;96872.41;;;14.31;100.00
46614;BME280;32338;50.430;6.806;2022-07-23T03:34:42;96869.56;;;14.25;100.00
46614;BME280;32338;50.430;6.806;2022-07-23T03:37:09;96871.00;;;14.21;100.00
46614;BME280;32338;50.430;6.806;2022-07-23T03:39:36;96868.16;;;14.23;100.00
46614;BME280;32338;50.430;6.806;2022-07-23T03:42:04;96868.97;;;14.23;100.00
46614;BME280;32338;50.430;6.806;2022-07-23T03:44:31;96870.22;;;14.14;100.00
46614;BME280;32338;50.430;6.806;2022-07-23T03:46:57;96873.06;;;14.06;100.00
46614;BME280;32338;50.430;6.806;2022-07-23T03:49:24;96870.84;;;14.03;100.00
46614;BME280;32338;50.430;6.806;2022-07-23T03:51:51;96880.47;;;14.04;100.00
46614;BME280;32338;50.430;6.806;2022-07-23T03:54:17;96874.94;;;14.05;100.00
46614;BME280;32338;50.430;6.806;2022-07-23T03:56:44;96871.22;;;14.13;100.00
46614;BME280;32338;50.430;6.806;2022-07-23T03:59:12;96866.47;;;14.35;100.00
46614;BME280;32338;50.430;6.806;2022-07-23T04:01:39;96875.81;;;14.51;100.00
46614;BME280;32338;50.430;6.806;2022-07-23T04:04:06;96865.16;;;14.58;100.00
46614;BME280;32338;50.430;6.806;2022-07-23T04:06:33;96871.56;;;14.43;100.00
46614;BME280;32338;50.430;6.806;2022-07-23T04:09:00;96872.16;;;14.52;100.00
46614;BME280;32338;50.430;6.806;2022-07-23T04:11:27;96872.72;;;14.68;100.00
46614;BME280;32338;50.430;6.806;2022-07-23T04:13:53;96879.06;;;14.67;100.00
46614;BME280;32338;50.430;6.806;2022-07-23T04:16:21;96883.34;;;14.68;100.00
46614;BME280;32338;50.430;6.806;2022-07-23T04:18:48;96890.31;;;14.69;100.00
46614;BME280;32338;50.430;6.806;2022-07-23T04:21:15;96891.94;;;14.70;100.00
46614;BME280;32338;50.430;6.806;2022-07-23T04:23:41;96892.94;;;14.75;100.00
46614;BME280;32338;50.430;6.806;2022-07-23T04:26:08;96905.03;;;14.71;100.00
46614;BME280;32338;50.430;6.806;2022-07-23T04:28:35;96889.88;;;14.72;100.00
46614;BME280;32338;50.430;6.806;2022-07-23T04:31:01;96894.97;;;14.73;100.00
46614;BME280;32338;50.430;6.806;2022-07-23T04:33:29;96896.22;;;14.71;100.00
46614;BME280;32338;50.430;6.806;2022-07-23T04:35:56;96889.47;;;14.75;100.00
46614;BME280;32338;50.430;6.806;2022-07-23T04:38:22;96885.38;;;14.72;100.00
46614;BME280;32338;50.430;6.806;2022-07-23T04:40:49;96891.28;;;14.74;100.00
46614;BME280;32338;50.430;6.806;2022-07-23T04:43:16;96891.09;;;14.76;100.00
46614;BME280;32338;50.430;6.806;2022-07-23T04:45:43;96896.41;;;14.76;100.00
46614;BME280;32338;50.430;6.806;2022-07-23T04:48:09;96897.03;;;14.71;100.00
46614;BME280;32338;50.430;6.806;2022-07-23T04:50:37;96903.81;;;14.67;100.00
46614;BME280;32338;50.430;6.806;2022-07-23T04:53:04;96899.66;;;14.78;100.00
46614;BME280;32338;50.430;6.806;2022-07-23T04:55:31;96900.50;;;14.79;100.00
46614;BME280;32338;50.430;6.806;2022-07-23T04:57:58;96904.41;;;14.76;100.00
46614;BME280;32338;50.430;6.806;2022-07-23T05:00:24;96904.19;;;14.78;100.00
46614;BME280;32338;50.430;6.806;2022-07-23T05:02:51;96900.84;;;14.82;100.00
46614;BME280;32338;50.430;6.806;2022-07-23T05:05:17;96907.00;;;14.83;100.00
46614;BME280;32338;50.430;6.806;2022-07-23T05:07:45;96905.16;;;14.83;100.00
46614;BME280;32338;50.430;6.806;2022-07-23T05:10:12;96908.16;;;15.00;100.00
46614;BME280;32338;50.430;6.806;2022-07-23T05:12:39;96911.22;;;15.04;100.00
46614;BME280;32338;50.430;6.806;2022-07-23T05:15:06;96915.69;;;15.03;100.00
46614;BME280;32338;50.430;6.806;2022-07-23T05:17:32;96919.59;;;15.01;100.00
46614;BME280;32338;50.430;6.806;2022-07-23T05:19:59;96919.81;;;14.99;100.00
46614;BME280;32338;50.430;6.806;2022-07-23T05:22:26;96924.56;;;14.90;100.00
46614;BME280;32338;50.430;6.806;2022-07-23T05:24:54;96930.69;;;14.91;100.00
46614;BME280;32338;50.430;6.806;2022-07-23T05:27:20;96930.69;;;14.98;100.00
46614;BME280;32338;50.430;6.806;2022-07-23T05:29:47;96932.94;;;14.94;100.00
46614;BME280;32338;50.430;6.806;2022-07-23T05:32:14;96928.66;;;14.93;100.00
46614;BME280;32338;50.430;6.806;2022-07-23T05:34:40;96923.69;;;15.03;100.00
46614;BME280;32338;50.430;6.806;2022-07-23T05:37:07;96920.34;;;15.15;100.00
46614;BME280;32338;50.430;6.806;2022-07-23T05:39:34;96930.63;;;15.11;100.00
46614;BME280;32338;50.430;6.806;2022-07-23T05:42:02;96929.78;;;15.17;100.00
46614;BME280;32338;50.430;6.806;2022-07-23T05:44:29;96927.97;;;15.11;100.00
46614;BME280;32338;50.430;6.806;2022-07-23T05:46:55;96933.47;;;15.10;100.00
46614;BME280;32338;50.430;6.806;2022-07-23T05:49:22;96930.56;;;15.18;100.00
46614;BME280;32338;50.430;6.806;2022-07-23T05:51:50;96923.78;;;15.22;100.00
46614;BME280;32338;50.430;6.806;2022-07-23T05:54:16;96929.50;;;15.26;100.00
46614;BME280;32338;50.430;6.806;2022-07-23T05:56:43;96925.38;;;15.30;100.00
46614;BME280;32338;50.430;6.806;2022-07-23T05:59:11;96932.88;;;15.39;100.00
46614;BME280;32338;50.430;6.806;2022-07-23T06:01:40;96945.56;;;15.44;100.00
46614;BME280;32338;50.430;6.806;2022-07-23T06:04:06;96936.78;;;15.44;100.00
46614;BME280;32338;50.430;6.806;2022-07-23T06:06:33;96939.44;;;15.44;100.00
46614;BME280;32338;50.430;6.806;2022-07-23T06:08:59;96942.56;;;15.34;100.00
46614;BME280;32338;50.430;6.806;2022-07-23T06:11:26;96947.38;;;15.50;100.00
46614;BME280;32338;50.430;6.806;2022-07-23T06:13:53;96948.63;;;15.41;100.00
46614;BME280;32338;50.430;6.806;2022-07-23T06:16:21;96943.94;;;15.43;100.00
46614;BME280;32338;50.430;6.806;2022-07-23T06:18:48;96945.22;;;15.34;100.00
46614;BME280;32338;50.430;6.806;2022-07-23T06:21:14;96949.53;;;15.28;100.00
46614;BME280;32338;50.430;6.806;2022-07-23T06:23:41;96950.97;;;15.31;100.00
46614;BME280;32338;50.430;6.806;2022-07-23T06:26:07;96949.31;;;15.30;100.00
46614;BME280;32338;50.430;6.806;2022-07-23T06:28:34;96962.47;;;15.24;100.00
46614;BME280;32338;50.430;6.806;2022-07-23T06:31:01;96956.56;;;15.22;100.00
46614;BME280;32338;50.430;6.806;2022-07-23T06:33:29;96965.28;;;15.36;100.00
46614;BME280;32338;50.430;6.806;2022-07-23T06:35:55;96966.69;;;15.39;100.00
46614;BME280;32338;50.430;6.806;2022-07-23T06:38:22;96964.59;;;15.48;100.00
46614;BME280;32338;50.430;6.806;2022-07-23T06:40:49;96966.19;;;15.55;100.00
46614;BME280;32338;50.430;6.806;2022-07-23T06:43:15;96965.94;;;15.64;100.00
46614;BME280;32338;50.430;6.806;2022-07-23T06:45:42;96970.03;;;15.60;100.00
46614;BME280;32338;50.430;6.806;2022-07-23T06:48:09;96971.19;;;15.70;100.00
46614;BME280;32338;50.430;6.806;2022-07-23T06:50:37;96972.16;;;15.76;100.00
46614;BME280;32338;50.430;6.806;2022-07-23T06:53:03;96975.88;;;15.75;100.00
46614;BME280;32338;50.430;6.806;2022-07-23T06:55:30;96981.41;;;15.73;100.00
46614;BME280;32338;50.430;6.806;2022-07-23T06:57:57;96977.72;;;15.75;100.00
46614;BME280;32338;50.430;6.806;2022-07-23T07:00:23;96986.94;;;15.79;100.00
46614;BME280;32338;50.430;6.806;2022-07-23T07:02:53;96986.84;;;15.92;100.00
46614;BME280;32338;50.430;6.806;2022-07-23T07:05:20;96993.56;;;15.95;100.00
46614;BME280;32338;50.430;6.806;2022-07-23T07:07:48;96991.13;;;15.93;100.00
46614;BME280;32338;50.430;6.806;2022-07-23T07:10:15;96992.13;;;15.99;100.00
46614;BME280;32338;50.430;6.806;2022-07-23T07:12:43;96992.13;;;15.99;100.00
46614;BME280;32338;50.430;6.806;2022-07-23T07:15:10;96995.75;;;16.04;100.00
46614;BME280;32338;50.430;6.806;2022-07-23T07:17:36;97003.19;;;16.21;100.00
46614;BME280;32338;50.430;6.806;2022-07-23T07:20:04;96997.38;;;16.31;100.00
46614;BME280;32338;50.430;6.806;2022-07-23T07:22:31;97002.28;;;16.34;100.00
46614;BME280;32338;50.430;6.806;2022-07-23T07:24:59;97002.97;;;16.48;100.00
46614;BME280;32338;50.430;6.806;2022-07-23T07:27:26;97005.78;;;16.53;100.00
46614;BME280;32338;50.430;6.806;2022-07-23T07:29:52;96994.53;;;16.69;100.00
46614;BME280;32338;50.430;6.806;2022-07-23T07:32:19;97005.72;;;16.78;100.00
46614;BME280;32338;50.430;6.806;2022-07-23T07:34:46;97000.44;;;16.97;100.00
46614;BME280;32338;50.430;6.806;2022-07-23T07:37:12;97008.56;;;17.02;100.00
46614;BME280;32338;50.430;6.806;2022-07-23T07:39:39;97007.22;;;17.11;100.00
46614;BME280;32338;50.430;6.806;2022-07-23T07:42:07;97013.78;;;17.15;100.00
46614;BME280;32338;50.430;6.806;2022-07-23T07:44:33;97012.03;;;17.21;100.00
46614;BME280;32338;50.430;6.806;2022-07-23T07:47:00;97003.72;;;17.29;98.39
46614;BME280;32338;50.430;6.806;2022-07-23T07:49:27;97021.75;;;17.34;98.70
46614;BME280;32338;50.430;6.806;2022-07-23T07:51:53;97005.53;;;17.47;97.14
46614;BME280;32338;50.430;6.806;2022-07-23T07:54:20;97004.25;;;17.50;98.53
46614;BME280;32338;50.430;6.806;2022-07-23T07:56:47;97007.31;;;17.54;96.46
46614;BME280;32338;50.430;6.806;2022-07-23T07:59:15;97017.31;;;17.58;94.11
46614;BME280;32338;50.430;6.806;2022-07-23T08:01:42;97014.78;;;17.63;92.03
46614;BME280;32338;50.430;6.806;2022-07-23T08:04:08;97019.81;;;17.72;92.42
46614;BME280;32338;50.430;6.806;2022-07-23T08:06:35;97022.38;;;17.78;91.93
46614;BME280;32338;50.430;6.806;2022-07-23T08:09:02;97030.16;;;17.80;89.76
46614;BME280;32338;50.430;6.806;2022-07-23T08:11:28;97031.34;;;17.84;87.32
46614;BME280;32338;50.430;6.806;2022-07-23T08:13:55;97029.16;;;17.93;91.26
46614;BME280;32338;50.430;6.806;2022-07-23T08:16:23;97025.81;;;17.97;89.27
46614;BME280;32338;50.430;6.806;2022-07-23T08:18:50;97027.81;;;18.02;88.53
46614;BME280;32338;50.430;6.806;2022-07-23T08:21:16;97026.16;;;18.01;87.11
46614;BME280;32338;50.430;6.806;2022-07-23T08:23:43;97030.00;;;18.05;89.40
46614;BME280;32338;50.430;6.806;2022-07-23T08:26:10;97030.59;;;18.07;89.26
46614;BME280;32338;50.430;6.806;2022-07-23T08:28:37;97027.59;;;18.15;90.20
46614;BME280;32338;50.430;6.806;2022-07-23T08:31:04;97032.03;;;18.22;86.67
46614;BME280;32338;50.430;6.806;2022-07-23T08:33:33;97038.91;;;18.29;86.43
46614;BME280;32338;50.430;6.806;2022-07-23T08:36:01;97038.78;;;18.48;85.46
46614;BME280;32338;50.430;6.806;2022-07-23T08:38:28;97034.13;;;18.43;85.01
46614;BME280;32338;50.430;6.806;2022-07-23T08:40:56;97040.66;;;18.36;82.66
46614;BME280;32338;50.430;6.806;2022-07-23T08:43:24;97043.66;;;18.51;86.21
46614;BME280;32338;50.430;6.806;2022-07-23T08:45:54;97044.63;;;18.57;86.58
46614;BME280;32338;50.430;6.806;2022-07-23T08:48:24;97056.34;;;18.68;84.35
46614;BME280;32338;50.430;6.806;2022-07-23T08:50:54;97041.47;;;18.72;84.99
46614;BME280;32338;50.430;6.806;2022-07-23T08:53:22;97047.97;;;18.76;82.75
46614;BME280;32338;50.430;6.806;2022-07-23T08:55:51;97045.16;;;18.83;83.32
46614;BME280;32338;50.430;6.806;2022-07-23T08:58:19;97046.91;;;18.89;84.35
46614;BME280;32338;50.430;6.806;2022-07-23T09:00:46;97047.88;;;18.94;84.34
46614;BME280;32338;50.430;6.806;2022-07-23T09:03:16;97056.38;;;19.03;80.19
46614;BME280;32338;50.430;6.806;2022-07-23T09:05:43;97053.69;;;19.03;80.09
46614;BME280;32338;50.430;6.806;2022-07-23T09:08:13;97054.03;;;19.07;80.60
46614;BME280;32338;50.430;6.806;2022-07-23T09:10:49;97059.16;;;18.96;79.29
46614;BME280;32338;50.430;6.806;2022-07-23T09:13:28;97056.16;;;18.93;79.67
46614;BME280;32338;50.430;6.806;2022-07-23T09:15:58;97057.53;;;18.95;81.51
46614;BME280;32338;50.430;6.806;2022-07-23T09:18:31;97055.78;;;19.01;78.37
46614;BME280;32338;50.430;6.806;2022-07-23T09:21:13;97057.50;;;19.19;82.84
46614;BME280;32338;50.430;6.806;2022-07-23T09:23:43;97057.22;;;19.33;81.88
46614;BME280;32338;50.430;6.806;2022-07-23T09:26:30;97057.88;;;19.52;80.34
46614;BME280;32338;50.430;6.806;2022-07-23T09:29:03;97048.84;;;19.58;79.20
46614;BME280;32338;50.430;6.806;2022-07-23T09:31:34;97055.22;;;19.69;79.28
46614;BME280;32338;50.430;6.806;2022-07-23T09:34:09;97052.31;;;19.70;75.84
46614;BME280;32338;50.430;6.806;2022-07-23T09:36:36;97050.50;;;19.88;80.08
46614;BME280;32338;50.430;6.806;2022-07-23T09:39:05;97054.78;;;20.01;76.20
46614;BME280;32338;50.430;6.806;2022-07-23T09:41:38;97048.75;;;20.11;75.42
46614;BME280;32338;50.430;6.806;2022-07-23T09:44:12;97047.34;;;20.08;72.87
46614;BME280;32338;50.430;6.806;2022-07-23T09:46:40;97066.88;;;20.03;72.96
46614;BME280;32338;50.430;6.806;2022-07-23T09:49:12;97064.38;;;20.14;77.15
46614;BME280;32338;50.430;6.806;2022-07-23T09:51:48;97067.78;;;20.26;74.88
46614;BME280;32338;50.430;6.806;2022-07-23T09:54:26;97066.41;;;20.23;71.50
46614;BME280;32338;50.430;6.806;2022-07-23T09:56:55;97062.81;;;20.01;71.48
46614;BME280;32338;50.430;6.806;2022-07-23T09:59:24;97063.91;;;19.88;72.09
46614;BME280;32338;50.430;6.806;2022-07-23T10:01:53;97063.25;;;19.81;75.13
46614;BME280;32338;50.430;6.806;2022-07-23T10:04:21;97070.84;;;19.72;74.69
46614;BME280;32338;50.430;6.806;2022-07-23T10:06:51;97061.50;;;19.74;75.51
46614;BME280;32338;50.430;6.806;2022-07-23T10:09:24;97063.13;;;19.75;74.79
46614;BME280;32338;50.430;6.806;2022-07-23T10:11:52;97061.19;;;20.00;74.83
46614;BME280;32338;50.430;6.806;2022-07-23T10:14:22;97068.75;;;20.20;74.55
46614;BME280;32338;50.430;6.806;2022-07-23T10:16:50;97066.31;;;20.35;74.73
46614;BME280;32338;50.430;6.806;2022-07-23T10:19:16;97065.28;;;20.53;73.68
46614;BME280;32338;50.430;6.806;2022-07-23T10:21:47;97067.69;;;20.38;69.92
46614;BME280;32338;50.430;6.806;2022-07-23T10:24:28;97063.50;;;20.42;70.82
46614;BME280;32338;50.430;6.806;2022-07-23T10:27:02;97056.97;;;20.55;71.77
46614;BME280;32338;50.430;6.806;2022-07-23T10:29:41;97064.44;;;20.70;71.38
46614;BME280;32338;50.430;6.806;2022-07-23T10:32:19;97056.25;;;20.60;69.11
46614;BME280;32338;50.430;6.806;2022-07-23T10:34:52;97054.06;;;20.39;71.23
46614;BME280;32338;50.430;6.806;2022-07-23T10:37:24;97051.28;;;20.34;69.82
46614;BME280;32338;50.430;6.806;2022-07-23T10:40:10;97050.41;;;20.46;73.60
46614;BME280;32338;50.430;6.806;2022-07-23T10:42:38;97052.50;;;20.78;71.43
46614;BME280;32338;50.430;6.806;2022-07-23T10:45:23;97057.88;;;20.78;69.73
46614;BME280;32338;50.430;6.806;2022-07-23T10:47:50;97057.63;;;20.79;70.05
46614;BME280;32338;50.430;6.806;2022-07-23T10:50:22;97064.63;;;20.63;72.63
46614;BME280;32338;50.430;6.806;2022-07-23T10:53:12;97060.97;;;20.52;72.66
46614;BME280;32338;50.430;6.806;2022-07-23T10:55:50;97060.72;;;20.54;74.20
46614;BME280;32338;50.430;6.806;2022-07-23T10:58:19;97053.06;;;20.63;74.47
46614;BME280;32338;50.430;6.806;2022-07-23T11:00:46;97054.13;;;20.79;73.87
46614;BME280;32338;50.430;6.806;2022-07-23T11:03:30;97049.94;;;20.88;71.35
46614;BME280;32338;50.430;6.806;2022-07-23T11:06:01;97055.41;;;21.15;72.76
46614;BME280;32338;50.430;6.806;2022-07-23T11:08:27;97051.53;;;21.28;75.46
46614;BME280;32338;50.430;6.806;2022-07-23T11:11:08;97054.91;;;21.41;68.31
46614;BME280;32338;50.430;6.806;2022-07-23T11:13:38;97050.56;;;21.57;71.12
46614;BME280;32338;50.430;6.806;2022-07-23T11:16:07;97044.97;;;21.91;68.09
46614;BME280;32338;50.430;6.806;2022-07-23T11:21:49;97048.44;;;21.59;67.88
46614;BME280;32338;50.430;6.806;2022-07-23T11:24:18;97051.03;;;21.53;70.96
46614;BME280;32338;50.430;6.806;2022-07-23T11:26:58;97052.97;;;21.58;65.69
46614;BME280;32338;50.430;6.806;2022-07-23T11:29:46;97052.16;;;21.80;67.71
46614;BME280;32338;50.430;6.806;2022-07-23T11:32:23;97043.91;;;21.92;69.14
46614;BME280;32338;50.430;6.806;2022-07-23T11:34:51;97048.66;;;22.39;67.05
46614;BME280;32338;50.430;6.806;2022-07-23T11:37:36;97043.31;;;22.44;60.72
46614;BME280;32338;50.430;6.806;2022-07-23T11:40:08;97042.34;;;22.61;60.93
46614;BME280;32338;50.430;6.806;2022-07-23T11:42:38;97043.75;;;22.69;60.49
46614;BME280;32338;50.430;6.806;2022-07-23T11:45:06;97042.13;;;22.67;61.49
46614;BME280;32338;50.430;6.806;2022-07-23T11:47:34;97040.28;;;22.73;61.21
46614;BME280;32338;50.430;6.806;2022-07-23T11:50:03;97054.28;;;22.75;57.38
46614;BME280;32338;50.430;6.806;2022-07-23T11:52:31;97051.88;;;22.74;60.12
46614;BME280;32338;50.430;6.806;2022-07-23T11:55:00;97048.63;;;22.72;58.17
46614;BME280;32338;50.430;6.806;2022-07-23T11:57:29;97046.13;;;23.08;56.75
46614;BME280;32338;50.430;6.806;2022-07-23T12:00:00;97044.78;;;23.74;62.19
46614;BME280;32338;50.430;6.806;2022-07-23T12:02:28;97054.91;;;23.46;53.87
46614;BME280;32338;50.430;6.806;2022-07-23T12:04:54;97048.19;;;23.48;54.56
46614;BME280;32338;50.430;6.806;2022-07-23T12:07:29;97047.38;;;23.43;58.31
46614;BME280;32338;50.430;6.806;2022-07-23T12:09:57;97041.44;;;23.46;60.54
46614;BME280;32338;50.430;6.806;2022-07-23T12:12:24;97049.50;;;23.36;55.98
46614;BME280;32338;50.430;6.806;2022-07-23T12:14:53;97041.44;;;23.46;56.78
46614;BME280;32338;50.430;6.806;2022-07-23T12:17:27;97049.03;;;23.49;56.24
46614;BME280;32338;50.430;6.806;2022-07-23T12:19:55;97046.31;;;23.44;56.79
46614;BME280;32338;50.430;6.806;2022-07-23T12:22:34;97041.16;;;23.42;55.40
46614;BME280;32338;50.430;6.806;2022-07-23T12:25:01;97041.69;;;23.39;57.17
46614;BME280;32338;50.430;6.806;2022-07-23T12:27:29;97038.81;;;23.67;57.62
46614;BME280;32338;50.430;6.806;2022-07-23T12:29:56;97034.78;;;23.74;61.21
46614;BME280;32338;50.430;6.806;2022-07-23T12:32:26;97031.06;;;24.53;54.94
46614;BME280;32338;50.430;6.806;2022-07-23T12:35:04;97038.91;;;24.34;56.13
46614;BME280;32338;50.430;6.806;2022-07-23T12:37:33;97031.56;;;24.91;51.62
46614;BME280;32338;50.430;6.806;2022-07-23T12:40:25;97035.84;;;25.02;60.01
46614;BME280;32338;50.430;6.806;2022-07-23T12:42:54;97028.84;;;24.96;54.43
46614;BME280;32338;50.430;6.806;2022-07-23T12:45:22;97035.53;;;25.19;51.80
46614;BME280;32338;50.430;6.806;2022-07-23T12:47:59;97038.59;;;24.92;49.63
46614;BME280;32338;50.430;6.806;2022-07-23T12:50:34;97037.03;;;24.70;52.18
46614;BME280;32338;50.430;6.806;2022-07-23T12:53:03;97035.63;;;24.88;52.07
46614;BME280;32338;50.430;6.806;2022-07-23T12:55:30;97040.53;;;24.66;50.52
46614;BME280;32338;50.430;6.806;2022-07-23T12:58:03;97031.31;;;24.77;53.80
46614;BME280;32338;50.430;6.806;2022-07-23T13:00:31;97032.00;;;25.19;55.35
46614;BME280;32338;50.430;6.806;2022-07-23T13:02:59;97044.94;;;25.27;53.91
46614;BME280;32338;50.430;6.806;2022-07-23T13:05:26;97036.78;;;25.93;53.23